Terminal Aerodrome Forecast
Issued by NWS Wakefield, VA

Home | Current Version | Previous Version | Text Only | Print | Product List | Glossary On
Versions: 1 2 3 4 5 6 7 8 9 10 11 12 13 14 15
000
FTUS41 KAKQ 262325
TAFRIC
TAF
KRIC 262325Z 2700/2724 23003KT P6SM SKC
     FM270800 VRB03KT P6SM BKN200
     FM271500 19007KT P6SM BKN120 BKN200
     FM272000 20010KT P6SM SCT120 BKN200=

USA.gov is the U.S. government's official web portal to all federal, state and local government web resources and services.